East Somerville, Massachusetts
Current Conditions -  °F | °C
As of 9:54 AM on Sunday 21 Dec 2014 (Local Time) from KBOS Reporting Station
Overcast Overcast  
Wind Chill: 22°   Ceiling: 1200
Heat Index: 30°   Visibility: 10mi
Dew Point: 25°   Wind: 9mph
Humidity: 82%   Direction: 350°N
Pressure: 30.34"   Gusts: NA
Location:  42.3814°N, 71.0971°W
Report Text: KBOS 211454Z 35008KT 10SM OVC012 M01/M04 A3034 RMK AO2 SNE35 SLP273 P0000 60000 T10111039 53009
Loading
Personal Weather Stations






























Interactive Weather Map New forecast layout! Learn more

10-Day Weather Forecast

Advertisements
Track Severe Weather on mobile